Time;durP1;ratioP1;P1;durP2;ratioP2;P2;SDS_P1;SDS_P2;PMS_P1;PMS_P2;Temp;Humidity;BMP_temperature;BMP_pressure;BME280_temperature;BME280_humidity;BME280_pressure;Samples;Min_cycle;Max_cycle;Signal;HPM_P1;HPM_P2
2023/03/23 00:01:24;;;;;;;;;;;;;;;3.30;98.77;97330.28;110131;1242;69124;-67
2023/03/23 00:03:57;;;;;;;;;;;;;;;3.29;98.55;97331.74;110070;1244;69335;-67
2023/03/23 00:06:27;;;;;;;;;;;;;;;3.28;99.41;97332.28;110084;1244;59744;-66
2023/03/23 00:08:59;;;;;;;;;;;;;;;3.28;100.00;97330.03;110136;1244;59685;-66
2023/03/23 00:11:30;;;;;;;;;;;;;;;3.28;100.00;97326.60;110123;1244;71218;-66
2023/03/23 00:14:00;;;;;;;;;;;;;;;3.27;99.94;97323.21;110104;1244;68512;-66
2023/03/23 00:16:31;;;;;;;;;;;;;;;3.29;100.00;97324.35;109808;1245;68462;-66
2023/03/23 00:19:01;;;;;;;;;;;;;;;3.25;99.98;97322.59;110158;1245;59785;-66
2023/03/23 00:21:35;;;;;;;;;;;;;;;3.20;99.66;97325.25;110018;1244;59701;-66
2023/03/23 00:24:09;;;;;;;;;;;;;;;3.12;99.56;97321.50;110100;1243;71655;-66
2023/03/23 00:26:43;;;;;;;;;;;;;;;3.01;99.35;97321.23;110123;1243;68572;-66
2023/03/23 00:29:16;;;;;;;;;;;;;;;2.94;100.00;97323.09;110067;1243;68496;-66
2023/03/23 00:31:48;;;;;;;;;;;;;;;2.87;100.00;97324.96;110107;1244;59695;-66
2023/03/23 00:34:19;;;;;;;;;;;;;;;2.80;100.00;97323.04;110175;1244;59714;-66
2023/03/23 00:36:49;;;;;;;;;;;;;;;2.76;100.00;97321.16;109866;1243;71312;-66
2023/03/23 00:39:17;;;;;;;;;;;;;;;2.80;100.00;97321.33;110083;1244;69953;-66
2023/03/23 00:41:48;;;;;;;;;;;;;;;2.87;100.00;97320.70;110046;1244;68483;-66
2023/03/23 00:44:17;;;;;;;;;;;;;;;2.91;100.00;97318.43;110006;1245;60185;-66
2023/03/23 00:46:45;;;;;;;;;;;;;;;2.96;100.00;97312.86;109944;1246;59798;-67
2023/03/23 00:49:14;;;;;;;;;;;;;;;2.96;100.00;97312.02;110072;1244;72083;-66
2023/03/23 00:51:43;;;;;;;;;;;;;;;2.92;100.00;97312.02;109850;1244;69092;-66
2023/03/23 00:54:12;;;;;;;;;;;;;;;2.82;100.00;97312.77;110121;1244;69191;-67
2023/03/23 00:56:40;;;;;;;;;;;;;;;2.72;100.00;97309.27;110018;1243;59735;-66
2023/03/23 00:59:08;;;;;;;;;;;;;;;2.65;100.00;97308.02;110104;1242;59690;-66
2023/03/23 01:01:36;;;;;;;;;;;;;;;2.59;100.00;97303.98;110117;1244;71971;-66
2023/03/23 01:04:04;;;;;;;;;;;;;;;2.58;100.00;97304.88;109861;1245;69108;-66
2023/03/23 01:06:38;;;;;;;;;;;;;;;2.56;100.00;97303.58;109950;1243;69493;-66
2023/03/23 01:09:07;;;;;;;;;;;;;;;2.54;100.00;97302.11;109815;1244;59709;-67
2023/03/23 01:11:35;;;;;;;;;;;;;;;2.48;100.00;97298.91;109947;1245;59628;-67
2023/03/23 01:14:04;;;;;;;;;;;;;;;2.44;100.00;97301.48;110233;1244;71364;-66
2023/03/23 01:16:32;;;;;;;;;;;;;;;2.40;100.00;97303.74;110107;1244;68733;-67
2023/03/23 01:19:01;;;;;;;;;;;;;;;2.35;100.00;97307.91;110149;1242;67851;-67
2023/03/23 01:21:30;;;;;;;;;;;;;;;2.29;100.00;97308.31;110102;1243;59731;-66
2023/03/23 01:23:58;;;;;;;;;;;;;;;2.23;100.00;97314.59;109896;1244;59702;-66
2023/03/23 01:26:27;;;;;;;;;;;;;;;2.20;100.00;97312.85;109817;1243;71737;-66
2023/03/23 01:28:55;;;;;;;;;;;;;;;2.17;100.00;97310.90;109880;1244;68575;-66
2023/03/23 01:31:26;;;;;;;;;;;;;;;2.19;100.00;97309.96;110065;1245;69112;-66
2023/03/23 01:33:55;;;;;;;;;;;;;;;2.26;100.00;97310.33;109849;1245;59704;-66
2023/03/23 01:36:28;;;;;;;;;;;;;;;2.25;100.00;97307.61;110067;1244;59702;-66
2023/03/23 01:39:05;;;;;;;;;;;;;;;2.14;100.00;97311.19;109806;1244;71432;-66
2023/03/23 01:41:34;;;;;;;;;;;;;;;1.99;100.00;97314.52;109862;1244;69270;-67
2023/03/23 01:44:13;;;;;;;;;;;;;;;1.83;100.00;97312.44;109975;1245;69666;-67
2023/03/23 01:46:56;;;;;;;;;;;;;;;1.71;100.00;97306.55;110119;1245;59717;-67
2023/03/23 01:49:31;;;;;;;;;;;;;;;1.64;100.00;97307.69;110118;1244;59688;-67
2023/03/23 01:52:13;;;;;;;;;;;;;;;1.60;100.00;97312.81;110114;1243;71410;-67
2023/03/23 01:54:44;;;;;;;;;;;;;;;1.57;100.00;97314.98;109787;1245;69223;-67
2023/03/23 01:57:16;;;;;;;;;;;;;;;1.56;100.00;97315.37;109831;1244;69866;-67
2023/03/23 01:59:47;;;;;;;;;;;;;;;1.55;100.00;97314.39;109814;1244;60072;-65
2023/03/23 02:02:20;;;;;;;;;;;;;;;1.53;100.00;97315.48;109874;1246;59715;-66
2023/03/23 02:04:49;;;;;;;;;;;;;;;1.52;100.00;97317.05;109976;1244;71432;-67
2023/03/23 02:07:20;;;;;;;;;;;;;;;1.54;100.00;97313.20;110041;1244;69121;-66
2023/03/23 02:09:52;;;;;;;;;;;;;;;1.62;100.00;97311.71;110047;1244;68558;-67
2023/03/23 02:12:22;;;;;;;;;;;;;;;1.66;100.00;97308.09;109833;1244;59702;-67
2023/03/23 02:14:55;;;;;;;;;;;;;;;1.66;100.00;97309.33;109965;1242;59663;-68
2023/03/23 02:17:32;;;;;;;;;;;;;;;1.64;100.00;97313.84;110130;1245;70626;-66
2023/03/23 02:20:05;;;;;;;;;;;;;;;1.64;100.00;97313.68;110123;1244;69094;-66
2023/03/23 02:22:34;;;;;;;;;;;;;;;1.64;100.00;97315.06;110122;1244;69235;-66
2023/03/23 02:25:22;;;;;;;;;;;;;;;1.61;100.00;97317.21;110102;1244;59715;-66
2023/03/23 02:28:11;;;;;;;;;;;;;;;1.60;100.00;97309.05;110063;1244;59671;-66
2023/03/23 02:30:58;;;;;;;;;;;;;;;1.58;100.00;97310.16;110024;1244;71404;-66
2023/03/23 02:33:53;;;;;;;;;;;;;;;1.60;100.00;97308.52;110001;1244;68140;-66
2023/03/23 02:36:28;;;;;;;;;;;;;;;1.56;100.00;97310.20;110125;1244;69692;-66
2023/03/23 02:39:01;;;;;;;;;;;;;;;1.52;100.00;97311.89;110144;1244;60097;-66
2023/03/23 02:41:36;;;;;;;;;;;;;;;1.49;100.00;97316.48;110151;1243;59696;-66
2023/03/23 02:44:07;;;;;;;;;;;;;;;1.46;100.00;97317.79;110112;1245;71371;-66
2023/03/23 02:46:40;;;;;;;;;;;;;;;1.44;100.00;97317.71;110037;1245;69113;-66
2023/03/23 02:49:11;;;;;;;;;;;;;;;1.42;100.00;97316.08;109901;1244;69248;-66
2023/03/23 02:51:44;;;;;;;;;;;;;;;1.39;100.00;97315.48;110074;1242;59760;-66
2023/03/23 02:54:15;;;;;;;;;;;;;;;1.38;100.00;97322.23;110074;1244;59669;-66
2023/03/23 02:56:43;;;;;;;;;;;;;;;1.35;100.00;97319.41;109978;1245;70462;-66
2023/03/23 02:59:19;;;;;;;;;;;;;;;1.33;100.00;97318.63;110080;1245;68783;-66
2023/03/23 03:01:55;;;;;;;;;;;;;;;1.31;100.00;97320.09;110048;1244;69190;-66
2023/03/23 03:04:28;;;;;;;;;;;;;;;1.29;100.00;97322.56;110085;1243;59763;-65
2023/03/23 03:07:02;;;;;;;;;;;;;;;1.27;100.00;97322.28;109904;1244;59725;-66
2023/03/23 03:09:51;;;;;;;;;;;;;;;1.25;100.00;97324.23;110011;1244;70662;-66
2023/03/23 03:12:19;;;;;;;;;;;;;;;1.27;100.00;97325.52;110030;1244;69271;-67
2023/03/23 03:14:56;;;;;;;;;;;;;;;1.32;100.00;97329.15;110151;1242;69384;-66
2023/03/23 03:17:26;;;;;;;;;;;;;;;1.35;100.00;97330.60;110064;1242;59749;-67
2023/03/23 03:20:09;;;;;;;;;;;;;;;1.35;100.00;97331.46;109928;1245;59695;-67
2023/03/23 03:22:44;;;;;;;;;;;;;;;1.32;100.00;97329.83;110130;1243;71532;-66
2023/03/23 03:25:13;;;;;;;;;;;;;;;1.28;100.00;97334.11;110109;1244;69474;-66
2023/03/23 03:27:43;;;;;;;;;;;;;;;1.24;100.00;97333.38;109841;1248;69838;-66
2023/03/23 03:30:20;;;;;;;;;;;;;;;1.20;100.00;97334.22;110041;1244;60031;-67
2023/03/23 03:32:53;;;;;;;;;;;;;;;1.14;100.00;97339.09;110044;1245;59685;-66
2023/03/23 03:35:23;;;;;;;;;;;;;;;1.08;100.00;97342.38;109906;1245;70638;-66
2023/03/23 03:37:51;;;;;;;;;;;;;;;1.06;100.00;97342.27;110099;1244;69152;-67
2023/03/23 03:40:20;;;;;;;;;;;;;;;1.07;100.00;97347.42;110049;1244;69166;-67
2023/03/23 03:42:51;;;;;;;;;;;;;;;1.11;100.00;97348.80;109807;1247;59676;-67
2023/03/23 03:45:20;;;;;;;;;;;;;;;1.14;100.00;97350.41;110091;1245;59663;-66
2023/03/23 03:47:49;;;;;;;;;;;;;;;1.14;100.00;97354.85;110059;1245;70535;-66
2023/03/23 03:50:18;;;;;;;;;;;;;;;1.13;100.00;97354.55;109908;1243;69173;-67
2023/03/23 03:52:48;;;;;;;;;;;;;;;1.13;100.00;97356.63;109925;1244;69334;-67
2023/03/23 03:55:18;;;;;;;;;;;;;;;1.07;100.00;97359.06;110040;1244;59738;-66
2023/03/23 03:57:48;;;;;;;;;;;;;;;1.01;100.00;97359.63;110101;1244;59754;-67
2023/03/23 04:00:47;;;;;;;;;;;;;;;0.94;100.00;97358.83;109690;1244;71774;-67
2023/03/23 04:03:18;;;;;;;;;;;;;;;0.93;100.00;97363.52;110026;1247;69852;-67
2023/03/23 04:06:12;;;;;;;;;;;;;;;0.92;100.00;97361.99;109959;1244;69628;-67
2023/03/23 04:08:42;;;;;;;;;;;;;;;0.90;100.00;97365.15;110104;1245;59747;-67
2023/03/23 04:11:13;;;;;;;;;;;;;;;0.88;100.00;97364.05;109954;1245;59754;-66
2023/03/23 04:13:42;;;;;;;;;;;;;;;0.87;100.00;97365.09;110098;1245;70662;-66
2023/03/23 04:16:16;;;;;;;;;;;;;;;0.86;100.00;97369.42;110113;1244;68176;-67
2023/03/23 04:18:47;;;;;;;;;;;;;;;0.84;100.00;97374.98;109899;1243;69705;-66
2023/03/23 04:21:17;;;;;;;;;;;;;;;0.83;100.00;97370.02;110077;1245;59693;-66
2023/03/23 04:23:47;;;;;;;;;;;;;;;0.81;100.00;97374.91;110163;1245;59730;-67
2023/03/23 04:26:15;;;;;;;;;;;;;;;0.80;100.00;97372.23;109947;1245;71457;-67
2023/03/23 04:28:50;;;;;;;;;;;;;;;0.80;100.00;97374.60;109952;1244;68506;-67
2023/03/23 04:31:34;;;;;;;;;;;;;;;0.81;100.00;97377.83;110103;1244;69872;-67
2023/03/23 04:34:22;;;;;;;;;;;;;;;0.81;100.00;97376.64;110059;1244;59612;-67
2023/03/23 04:36:50;;;;;;;;;;;;;;;0.81;100.00;97376.96;110111;1244;59668;-67
2023/03/23 04:39:24;;;;;;;;;;;;;;;0.82;100.00;97376.08;109950;1244;71759;-67
2023/03/23 04:41:53;;;;;;;;;;;;;;;0.83;100.00;97377.23;110094;1244;69811;-67
2023/03/23 04:44:27;;;;;;;;;;;;;;;0.88;100.00;97374.85;109962;1245;69597;-68
2023/03/23 04:47:03;;;;;;;;;;;;;;;0.97;100.00;97378.11;110025;1244;59731;-67
2023/03/23 04:49:35;;;;;;;;;;;;;;;1.07;100.00;97380.54;109841;1244;59702;-67
2023/03/23 04:52:14;;;;;;;;;;;;;;;1.20;100.00;97384.36;109916;1242;71982;-67
2023/03/23 04:54:44;;;;;;;;;;;;;;;1.33;100.00;97384.38;109958;1245;69471;-67
2023/03/23 04:57:13;;;;;;;;;;;;;;;1.50;100.00;97388.40;109926;1244;69955;-67
2023/03/23 04:59:45;;;;;;;;;;;;;;;1.70;100.00;97390.40;109985;1244;59667;-66
2023/03/23 05:02:25;;;;;;;;;;;;;;;1.99;100.00;97389.32;109859;1244;59681;-67
2023/03/23 05:04:53;;;;;;;;;;;;;;;2.20;100.00;97392.09;110069;1244;71646;-69
2023/03/23 05:07:23;;;;;;;;;;;;;;;2.43;100.00;97394.60;109845;1245;69713;-70
2023/03/23 05:09:53;;;;;;;;;;;;;;;2.70;100.00;97390.60;109800;1244;68522;-71
2023/03/23 05:12:23;;;;;;;;;;;;;;;2.89;100.00;97394.93;110010;1244;59691;-70
2023/03/23 05:14:57;;;;;;;;;;;;;;;3.08;100.00;97397.56;110060;1245;59656;-70
2023/03/23 05:17:26;;;;;;;;;;;;;;;3.27;100.00;97399.70;110080;1244;71352;-70
2023/03/23 05:19:56;;;;;;;;;;;;;;;3.44;100.00;97402.38;110088;1245;69827;-70
2023/03/23 05:22:51;;;;;;;;;;;;;;;3.65;100.00;97406.80;110064;1245;69363;-70
2023/03/23 05:25:23;;;;;;;;;;;;;;;3.82;100.00;97406.71;110121;1244;59695;-70
2023/03/23 05:28:18;;;;;;;;;;;;;;;3.95;99.85;97412.67;110065;1244;59630;-70
2023/03/23 05:30:55;;;;;;;;;;;;;;;4.10;99.80;97414.70;110111;1244;71881;-70
2023/03/23 05:33:24;;;;;;;;;;;;;;;4.28;99.44;97417.31;110057;1244;69752;-70
2023/03/23 05:36:10;;;;;;;;;;;;;;;4.48;98.50;97419.82;109858;1244;69456;-70
2023/03/23 05:39:03;;;;;;;;;;;;;;;4.76;98.11;97418.81;110193;1244;59673;-71
2023/03/23 05:41:46;;;;;;;;;;;;;;;5.21;100.00;97420.66;110091;1245;59688;-70
2023/03/23 05:44:14;;;;;;;;;;;;;;;5.62;100.00;97423.23;110091;1244;72096;-70
2023/03/23 05:46:52;;;;;;;;;;;;;;;5.98;100.00;97423.21;110078;1245;70424;-70
2023/03/23 05:49:21;;;;;;;;;;;;;;;6.34;99.75;97423.17;110122;1244;70341;-69
2023/03/23 05:51:49;;;;;;;;;;;;;;;6.62;94.26;97426.06;110110;1245;59740;-70
2023/03/23 05:54:17;;;;;;;;;;;;;;;6.70;85.64;97425.15;109913;1245;59750;-70
2023/03/23 05:56:46;;;;;;;;;;;;;;;6.81;82.92;97428.11;109797;1245;71389;-70
2023/03/23 05:59:33;;;;;;;;;;;;;;;6.83;82.20;97426.63;110107;1244;68836;-70
2023/03/23 06:02:03;;;;;;;;;;;;;;;6.94;82.32;97427.22;110025;1244;69882;-71
2023/03/23 06:04:33;;;;;;;;;;;;;;;7.22;83.01;97425.73;110073;1242;59739;-70
2023/03/23 06:07:14;;;;;;;;;;;;;;;7.49;83.75;97424.98;109924;1245;59721;-72
2023/03/23 06:09:47;;;;;;;;;;;;;;;7.82;81.47;97426.11;110101;1244;71725;-70
2023/03/23 06:12:24;;;;;;;;;;;;;;;8.05;81.71;97427.10;110121;1245;69903;-69
2023/03/23 06:15:05;;;;;;;;;;;;;;;8.05;78.05;97426.92;109996;1242;68954;-70
2023/03/23 06:17:56;;;;;;;;;;;;;;;8.11;77.19;97429.85;110062;1245;59711;-70
2023/03/23 06:20:24;;;;;;;;;;;;;;;8.41;77.87;97434.23;110105;1244;59744;-69
2023/03/23 06:22:53;;;;;;;;;;;;;;;8.65;76.28;97429.95;110102;1243;71971;-70
2023/03/23 06:25:29;;;;;;;;;;;;;;;8.85;76.50;97424.83;109835;1245;69504;-70
2023/03/23 06:27:58;;;;;;;;;;;;;;;9.06;74.14;97428.48;109807;1244;68493;-70
2023/03/23 06:30:26;;;;;;;;;;;;;;;9.24;72.22;97427.45;110092;1243;59670;-70
2023/03/23 06:32:55;;;;;;;;;;;;;;;9.45;72.26;97432.11;110221;1245;59689;-69
2023/03/23 06:35:39;;;;;;;;;;;;;;;9.79;71.27;97432.53;110095;1244;71351;-70
2023/03/23 06:38:15;;;;;;;;;;;;;;;10.09;70.77;97433.05;110096;1242;68950;-70
2023/03/23 06:40:55;;;;;;;;;;;;;;;10.18;71.24;97434.05;110103;1245;68319;-70
2023/03/23 06:43:23;;;;;;;;;;;;;;;10.29;70.26;97431.70;109774;1248;59808;-69
2023/03/23 06:46:00;;;;;;;;;;;;;;;10.24;69.56;97435.38;110099;1244;59688;-69
2023/03/23 06:48:43;;;;;;;;;;;;;;;10.37;69.55;97436.90;110054;1243;71669;-69
2023/03/23 06:51:13;;;;;;;;;;;;;;;10.60;68.99;97436.77;110139;1245;69225;-68
2023/03/23 06:53:43;;;;;;;;;;;;;;;10.82;67.81;97437.83;109729;1243;69103;-71
2023/03/23 06:56:13;;;;;;;;;;;;;;;10.92;66.75;97438.98;110066;1245;60133;-69
2023/03/23 06:58:42;;;;;;;;;;;;;;;11.36;66.51;97436.04;109790;1244;59738;-70
2023/03/23 07:01:10;;;;;;;;;;;;;;;11.55;64.60;97437.56;110090;1244;71384;-71
2023/03/23 07:03:42;;;;;;;;;;;;;;;11.73;62.75;97437.75;110305;1245;69658;-71
2023/03/23 07:06:11;;;;;;;;;;;;;;;11.94;61.34;97439.69;110335;1245;69633;-70
2023/03/23 07:08:46;;;;;;;;;;;;;;;12.15;60.49;97439.58;109961;1247;59763;-69
2023/03/23 07:11:18;;;;;;;;;;;;;;;12.26;59.45;97438.73;109838;1248;59740;-69
2023/03/23 07:13:46;;;;;;;;;;;;;;;12.48;60.54;97442.23;110067;1244;71797;-69
2023/03/23 07:16:14;;;;;;;;;;;;;;;13.07;58.36;97437.79;110088;1245;69276;-70
2023/03/23 07:18:42;;;;;;;;;;;;;;;13.29;57.75;97437.67;110029;1244;69729;-70
2023/03/23 07:21:10;;;;;;;;;;;;;;;13.44;57.26;97444.30;109817;1245;59697;-71
2023/03/23 07:23:38;;;;;;;;;;;;;;;13.01;56.35;97442.45;110167;1244;59688;-69
2023/03/23 07:26:07;;;;;;;;;;;;;;;13.34;56.12;97445.87;110085;1244;72023;-69
2023/03/23 07:28:46;;;;;;;;;;;;;;;13.03;56.43;97444.23;110121;1244;69267;-69
2023/03/23 07:31:22;;;;;;;;;;;;;;;13.52;56.05;97446.42;110098;1244;68835;-69
2023/03/23 07:33:51;;;;;;;;;;;;;;;13.79;56.16;97445.10;110070;1245;59693;-70
2023/03/23 07:36:20;;;;;;;;;;;;;;;14.23;55.19;97445.98;110147;1245;59686;-70
2023/03/23 07:38:48;;;;;;;;;;;;;;;14.46;54.24;97441.39;110129;1245;70634;-71
2023/03/23 07:41:16;;;;;;;;;;;;;;;14.72;53.32;97437.46;110135;1244;69200;-70
2023/03/23 07:43:45;;;;;;;;;;;;;;;14.97;54.11;97433.52;110144;1244;69094;-70
2023/03/23 07:46:32;;;;;;;;;;;;;;;15.28;51.28;97431.73;110168;1244;59826;-71
2023/03/23 07:49:10;;;;;;;;;;;;;;;15.31;51.47;97430.06;110112;1243;59688;-70
2023/03/23 07:51:43;;;;;;;;;;;;;;;15.42;50.62;97428.64;110114;1243;71889;-70
2023/03/23 07:54:14;;;;;;;;;;;;;;;15.55;51.09;97429.73;110099;1245;69203;-70
2023/03/23 07:56:57;;;;;;;;;;;;;;;15.89;50.12;97430.52;110049;1244;69848;-71
2023/03/23 07:59:28;;;;;;;;;;;;;;;16.18;48.82;97427.52;110085;1244;59679;-71
2023/03/23 08:01:58;;;;;;;;;;;;;;;16.43;48.44;97428.71;110073;1244;59745;-69
2023/03/23 08:04:44;;;;;;;;;;;;;;;15.94;49.21;97427.68;109897;1244;70987;-70
2023/03/23 08:07:12;;;;;;;;;;;;;;;15.81;49.03;97424.85;110100;1242;69120;-71
2023/03/23 08:10:10;;;;;;;;;;;;;;;16.09;49.80;97425.27;109841;1244;68979;-70
2023/03/23 08:13:05;;;;;;;;;;;;;;;16.74;48.68;97422.14;110067;1245;59750;-71
2023/03/23 08:15:44;;;;;;;;;;;;;;;17.04;46.69;97418.34;110086;1244;59684;-71
2023/03/23 08:18:29;;;;;;;;;;;;;;;17.01;46.32;97414.20;109941;1243;71780;-71
2023/03/23 08:21:22;;;;;;;;;;;;;;;17.15;46.44;97407.94;109778;1244;68659;-70
2023/03/23 08:24:07;;;;;;;;;;;;;;;17.74;44.59;97408.67;109798;1243;68880;-68
2023/03/23 08:27:14;;;;;;;;;;;;;;;17.97;44.26;97409.30;109718;1243;59757;-71
2023/03/23 08:30:02;;;;;;;;;;;;;;;17.82;44.65;97408.39;109723;1245;59677;-71
2023/03/23 08:32:50;;;;;;;;;;;;;;;18.17;44.07;97411.27;109869;1245;70305;-70
2023/03/23 08:35:38;;;;;;;;;;;;;;;18.10;43.62;97410.45;109754;1243;69729;-69
2023/03/23 08:38:37;;;;;;;;;;;;;;;18.22;43.76;97411.98;109452;1249;68917;-70
2023/03/23 08:41:24;;;;;;;;;;;;;;;18.33;43.28;97409.11;109927;1244;59685;-70
2023/03/23 08:44:12;;;;;;;;;;;;;;;18.55;43.16;97405.58;109879;1244;59689;-70
2023/03/23 08:46:40;;;;;;;;;;;;;;;18.81;42.60;97404.90;110082;1244;71402;-71
2023/03/23 08:49:33;;;;;;;;;;;;;;;18.73;41.60;97405.61;109962;1245;69872;-70
2023/03/23 08:52:35;;;;;;;;;;;;;;;18.20;43.00;97411.09;110033;1244;69261;-70
2023/03/23 08:55:28;;;;;;;;;;;;;;;19.00;41.99;97402.51;110142;1245;59668;-71
2023/03/23 08:58:19;;;;;;;;;;;;;;;19.10;41.40;97400.73;109740;1245;59695;-69
2023/03/23 09:01:18;;;;;;;;;;;;;;;18.59;41.73;97405.33;109689;1244;71474;-70
2023/03/23 09:03:52;;;;;;;;;;;;;;;18.97;41.27;97403.81;110030;1244;69214;-71
2023/03/23 09:06:47;;;;;;;;;;;;;;;19.17;40.38;97402.47;110060;1244;69257;-70
2023/03/23 09:09:14;;;;;;;;;;;;;;;18.87;41.30;97402.72;109745;1246;59966;-70
2023/03/23 09:11:42;;;;;;;;;;;;;;;19.41;39.93;97402.34;110089;1245;59686;-70
2023/03/23 09:14:11;;;;;;;;;;;;;;;19.48;39.65;97402.33;110096;1243;71552;-70
2023/03/23 09:16:38;;;;;;;;;;;;;;;20.04;38.94;97402.20;110108;1245;69790;-70
2023/03/23 09:19:08;;;;;;;;;;;;;;;19.87;38.71;97399.56;110073;1245;69356;-69
2023/03/23 09:21:36;;;;;;;;;;;;;;;20.61;38.10;97402.86;110084;1245;59742;-70
2023/03/23 09:24:04;;;;;;;;;;;;;;;20.99;37.09;97398.09;110046;1245;59645;-70
2023/03/23 09:26:33;;;;;;;;;;;;;;;20.80;37.03;97396.98;110063;1245;70715;-71
2023/03/23 09:29:00;;;;;;;;;;;;;;;21.72;36.03;97397.84;110156;1245;68490;-71
2023/03/23 09:31:28;;;;;;;;;;;;;;;21.80;34.86;97400.96;110053;1245;68463;-70
2023/03/23 09:33:56;;;;;;;;;;;;;;;21.79;34.87;97396.86;110049;1245;59755;-70
2023/03/23 09:36:31;;;;;;;;;;;;;;;21.79;34.44;97397.98;110071;1245;59715;-71
2023/03/23 09:38:59;;;;;;;;;;;;;;;22.02;34.23;97396.71;110074;1243;70963;-70
2023/03/23 09:41:36;;;;;;;;;;;;;;;22.65;33.56;97400.28;110092;1245;70615;-70
2023/03/23 09:44:30;;;;;;;;;;;;;;;22.33;33.23;97401.94;110093;1243;69278;-70
2023/03/23 09:47:07;;;;;;;;;;;;;;;22.02;33.27;97396.08;110080;1245;59666;-70
2023/03/23 09:49:54;;;;;;;;;;;;;;;22.31;33.22;97393.97;110152;1245;59686;-71
2023/03/23 09:52:23;;;;;;;;;;;;;;;23.11;30.47;97387.59;110204;1244;71415;-71
2023/03/23 09:54:52;;;;;;;;;;;;;;;23.03;30.40;97386.30;110046;1242;69515;-70
2023/03/23 09:57:28;;;;;;;;;;;;;;;22.56;30.75;97384.94;110122;1245;69636;-71
2023/03/23 10:00:15;;;;;;;;;;;;;;;22.30;31.27;97385.40;110120;1245;59747;-70
2023/03/23 10:02:52;;;;;;;;;;;;;;;22.26;31.22;97383.11;110295;1244;59687;-71
2023/03/23 10:05:20;;;;;;;;;;;;;;;22.30;31.88;97377.80;110259;1245;70548;-70
2023/03/23 10:07:47;;;;;;;;;;;;;;;22.52;32.06;97375.47;110121;1244;69213;-70
2023/03/23 10:10:15;;;;;;;;;;;;;;;23.26;30.75;97369.52;110067;1245;69439;-70
2023/03/23 10:13:01;;;;;;;;;;;;;;;23.33;29.75;97370.46;109751;1248;59792;-70
2023/03/23 10:15:30;;;;;;;;;;;;;;;22.89;30.55;97368.96;110065;1245;59650;-70
2023/03/23 10:17:58;;;;;;;;;;;;;;;21.75;32.02;97371.04;109766;1242;71993;-70
2023/03/23 10:20:52;;;;;;;;;;;;;;;21.59;32.18;97365.77;110046;1245;68789;-70
2023/03/23 10:23:19;;;;;;;;;;;;;;;21.00;33.54;97364.33;110049;1251;68698;-70
2023/03/23 10:25:51;;;;;;;;;;;;;;;21.79;32.54;97362.95;109746;1246;59701;-71
2023/03/23 10:28:21;;;;;;;;;;;;;;;21.89;31.73;97362.11;110115;1245;59665;-71
2023/03/23 10:30:54;;;;;;;;;;;;;;;21.84;32.12;97358.89;110267;1245;71425;-70
2023/03/23 10:33:40;;;;;;;;;;;;;;;21.89;31.46;97355.61;110070;1244;69828;-71
2023/03/23 10:36:10;;;;;;;;;;;;;;;22.04;31.39;97352.36;109786;1245;404036;-69
2023/03/23 10:38:41;;;;;;;;;;;;;;;22.88;30.29;97342.77;110056;1244;59710;-69
2023/03/23 10:41:12;;;;;;;;;;;;;;;22.79;29.58;97340.37;110101;1244;59703;-69
2023/03/23 10:43:41;;;;;;;;;;;;;;;23.34;29.76;97337.55;110063;1242;71959;-69
2023/03/23 10:46:39;;;;;;;;;;;;;;;24.39;28.28;97337.26;110097;1244;69000;-70
2023/03/23 10:49:11;;;;;;;;;;;;;;;24.32;27.11;97339.21;110069;1245;69839;-71
2023/03/23 10:51:44;;;;;;;;;;;;;;;22.60;28.35;97338.26;110182;1244;59648;-71
2023/03/23 10:54:12;;;;;;;;;;;;;;;23.38;28.83;97334.79;110100;1243;59701;-71
2023/03/23 10:56:41;;;;;;;;;;;;;;;23.53;28.65;97338.27;110085;1244;69587;-70
2023/03/23 10:59:12;;;;;;;;;;;;;;;23.90;29.26;97332.97;110060;1245;69247;-70
2023/03/23 11:01:43;;;;;;;;;;;;;;;24.46;28.83;97326.89;110052;1243;69896;-70
2023/03/23 11:04:12;;;;;;;;;;;;;;;24.89;28.24;97323.02;110092;1245;59674;-70
2023/03/23 11:06:45;;;;;;;;;;;;;;;24.13;27.16;97326.11;110114;1244;59685;-71
2023/03/23 11:09:15;;;;;;;;;;;;;;;25.29;27.43;97320.33;110085;1246;71414;-71
2023/03/23 11:11:50;;;;;;;;;;;;;;;25.31;25.77;97324.30;110083;1245;69869;-71
2023/03/23 11:14:19;;;;;;;;;;;;;;;24.86;26.45;97322.52;110051;1244;67662;-71
2023/03/23 11:16:55;;;;;;;;;;;;;;;24.12;26.58;97319.96;110139;1244;60091;-70
2023/03/23 11:19:30;;;;;;;;;;;;;;;23.77;26.96;97321.61;110082;1245;59677;-70
2023/03/23 11:22:04;;;;;;;;;;;;;;;23.36;27.52;97317.83;110099;1245;71274;-70
2023/03/23 11:24:47;;;;;;;;;;;;;;;22.83;28.16;97320.70;110079;1245;69407;-70
2023/03/23 11:27:15;;;;;;;;;;;;;;;22.47;28.87;97315.74;110045;1244;68552;-70
2023/03/23 11:29:48;;;;;;;;;;;;;;;22.73;29.32;97313.75;110099;1243;59755;-70
2023/03/23 11:32:17;;;;;;;;;;;;;;;23.33;28.42;97304.15;110073;1245;59709;-70
2023/03/23 11:34:47;;;;;;;;;;;;;;;23.93;27.78;97294.61;109843;1244;71948;-70
2023/03/23 11:37:20;;;;;;;;;;;;;;;24.49;27.27;97295.05;109969;1244;68121;-70
2023/03/23 11:39:58;;;;;;;;;;;;;;;24.91;26.04;97286.14;110045;1248;69723;-70
2023/03/23 11:42:45;;;;;;;;;;;;;;;24.35;26.40;97279.48;110065;1244;59791;-71
2023/03/23 11:45:22;;;;;;;;;;;;;;;24.77;26.51;97275.66;109831;1250;59708;-69
2023/03/23 11:47:49;;;;;;;;;;;;;;;24.57;25.62;97279.27;109776;1246;71981;-71
2023/03/23 11:50:55;;;;;;;;;;;;;;;24.48;26.13;97277.98;110054;1244;69316;-70
2023/03/23 11:53:23;;;;;;;;;;;;;;;25.25;25.56;97279.48;109337;1254;69677;-71
2023/03/23 11:56:03;;;;;;;;;;;;;;;25.81;24.01;97281.08;109351;1250;59815;-71
2023/03/23 11:58:32;;;;;;;;;;;;;;;26.01;24.21;97279.27;109753;1244;59747;-70
2023/03/23 12:01:16;;;;;;;;;;;;;;;26.08;23.96;97270.56;110073;1247;71552;-71
2023/03/23 12:04:02;;;;;;;;;;;;;;;26.19;22.86;97268.92;110023;1246;68606;-71
2023/03/23 12:06:35;;;;;;;;;;;;;;;26.15;22.31;97265.08;110198;1245;69398;-71
2023/03/23 12:09:18;;;;;;;;;;;;;;;25.58;21.67;97264.60;110049;1252;59684;-73
2023/03/23 12:11:56;;;;;;;;;;;;;;;24.50;22.58;97258.34;110042;1246;59688;-71
2023/03/23 12:14:33;;;;;;;;;;;;;;;24.30;21.91;97257.59;109720;1247;70667;-70
2023/03/23 12:17:13;;;;;;;;;;;;;;;24.01;21.70;97258.66;110061;1245;69075;-70
2023/03/23 12:19:58;;;;;;;;;;;;;;;25.48;22.28;97255.00;110029;1245;69257;-70
2023/03/23 12:22:26;;;;;;;;;;;;;;;24.97;22.78;97252.54;110135;1245;59745;-71
2023/03/23 12:24:59;;;;;;;;;;;;;;;24.83;23.60;97249.75;110043;1250;59687;-70
2023/03/23 12:27:46;;;;;;;;;;;;;;;24.78;23.18;97242.65;110041;1246;72159;-70
2023/03/23 12:30:31;;;;;;;;;;;;;;;25.03;23.23;97237.37;110046;1244;68595;-70
2023/03/23 12:33:13;;;;;;;;;;;;;;;26.21;23.01;97235.45;109986;1244;69249;-71
2023/03/23 12:35:41;;;;;;;;;;;;;;;26.64;21.86;97231.35;110021;1246;59748;-69
2023/03/23 12:38:27;;;;;;;;;;;;;;;26.26;22.29;97232.25;110030;1246;59670;-69
2023/03/23 12:41:15;;;;;;;;;;;;;;;26.19;21.91;97227.53;110073;1245;70643;-71
2023/03/23 12:43:56;;;;;;;;;;;;;;;25.82;22.90;97224.80;110068;1245;68183;-72
2023/03/23 12:46:24;;;;;;;;;;;;;;;26.06;22.22;97219.67;110092;1244;69174;-71
2023/03/23 12:48:55;;;;;;;;;;;;;;;25.51;23.01;97219.77;110093;1245;59750;-71
2023/03/23 12:51:23;;;;;;;;;;;;;;;26.37;22.46;97213.23;110137;1248;59677;-71
2023/03/23 12:53:58;;;;;;;;;;;;;;;25.89;21.94;97215.01;110071;1245;72111;-72
2023/03/23 12:56:48;;;;;;;;;;;;;;;24.61;22.67;97212.05;109944;1244;69216;-71
2023/03/23 12:59:28;;;;;;;;;;;;;;;25.69;22.92;97211.94;110361;1252;69682;-70
2023/03/23 13:01:59;;;;;;;;;;;;;;;26.45;22.14;97204.71;110072;1244;59688;-71
2023/03/23 13:04:37;;;;;;;;;;;;;;;27.14;21.32;97204.97;110140;1245;59706;-70
2023/03/23 13:07:06;;;;;;;;;;;;;;;27.43;21.26;97206.57;110063;1242;71419;-71
2023/03/23 13:09:53;;;;;;;;;;;;;;;27.09;20.17;97210.16;109828;1248;69031;-71
2023/03/23 13:12:21;;;;;;;;;;;;;;;27.01;21.02;97204.08;110043;1245;69386;-72
2023/03/23 13:14:48;;;;;;;;;;;;;;;26.88;21.13;97202.16;110267;1245;59691;-72
2023/03/23 13:17:19;;;;;;;;;;;;;;;25.70;21.88;97200.04;109918;1244;59745;-71